createdAt,value
2019-01-12T17:08:35.452Z,19.42
2019-01-12T17:12:39.398Z,19.38
2019-01-12T17:17:14.808Z,19.42
2019-01-12T17:21:16.004Z,19.48
2019-01-12T17:25:18.708Z,19.47
2019-01-12T17:29:19.827Z,19.49
2019-01-12T17:33:20.916Z,19.49
2019-01-12T17:37:21.895Z,19.54
2019-01-12T17:41:22.912Z,19.56
2019-01-12T17:45:25.708Z,19.47
2019-01-12T17:49:27.843Z,19.28
2019-01-12T17:53:29.056Z,19.15
2019-01-12T17:57:30.178Z,19.07
2019-01-12T18:01:31.229Z,19.01
2019-01-12T18:05:32.362Z,18.95
2019-01-12T18:09:33.952Z,18.91
2019-01-12T18:13:39.197Z,18.86
2019-01-12T18:17:41.706Z,18.82
2019-01-12T18:21:42.833Z,19.02
2019-01-12T18:25:43.888Z,19.36
2019-01-12T18:29:44.964Z,19.50
2019-01-12T18:33:45.965Z,19.55
2019-01-12T18:37:47.019Z,19.59
2019-01-12T18:41:48.037Z,19.71
2019-01-12T18:45:49.094Z,19.71
2019-01-12T18:49:50.166Z,19.70
2019-01-12T18:53:51.433Z,19.65
2019-01-12T18:57:52.397Z,19.58
2019-01-12T19:01:53.632Z,19.59
2019-01-12T19:05:54.676Z,19.59
2019-01-12T19:09:55.745Z,19.60
2019-01-12T19:14:01.630Z,19.61
2019-01-12T19:18:02.716Z,19.62
2019-01-12T19:22:03.839Z,19.63
2019-01-12T19:26:05.462Z,19.63
2019-01-12T19:30:08.951Z,19.65
2019-01-12T19:34:10.075Z,19.66
2019-01-12T19:38:11.241Z,19.65
2019-01-12T19:42:12.314Z,19.66
2019-01-12T19:46:13.330Z,19.67
2019-01-12T19:50:17.683Z,19.68
2019-01-12T19:54:18.728Z,19.68
2019-01-12T19:58:19.811Z,19.69
2019-01-12T20:02:20.974Z,19.67
2019-01-12T20:06:25.025Z,19.71
2019-01-12T20:10:26.231Z,19.72
2019-01-12T20:14:27.439Z,19.72
2019-01-12T20:18:28.739Z,19.73
2019-01-12T20:22:32.470Z,19.73
2019-01-12T20:26:34.290Z,19.77
2019-01-12T20:30:50.178Z,19.75
2019-01-12T20:34:57.349Z,19.77
2019-01-12T20:39:36.415Z,19.78
2019-01-12T20:44:35.507Z,19.78
2019-01-12T20:48:55.750Z,19.79
2019-01-12T20:53:08.540Z,19.79
2019-01-12T20:57:38.194Z,19.81
2019-01-12T21:02:18.244Z,19.82
2019-01-12T21:06:43.709Z,19.82
2019-01-12T21:11:03.026Z,19.82
2019-01-12T21:15:18.730Z,19.83
2019-01-12T21:19:21.417Z,19.83
2019-01-12T21:23:22.493Z,19.85
2019-01-12T21:27:23.936Z,19.85
2019-01-12T21:31:25.218Z,19.86
2019-01-12T21:35:26.268Z,19.87
2019-01-12T21:39:27.360Z,19.87
2019-01-12T21:43:28.349Z,19.87
2019-01-12T21:47:29.491Z,19.88
2019-01-12T21:51:30.510Z,19.88
2019-01-12T21:55:31.618Z,19.89
2019-01-12T21:59:32.662Z,19.90
